Time;durP1;ratioP1;P1;durP2;ratioP2;P2;SDS_P1;SDS_P2;PMS_P1;PMS_P2;Temp;Humidity;BMP_temperature;BMP_pressure;BME280_temperature;BME280_humidity;BME280_pressure;Samples;Min_cycle;Max_cycle;Signal;HPM_P1;HPM_P2
2022/09/12 00:01:37;;;;;;;5.40;2.53;;;10.60;99.90;;;;;;4987033;28;20070;-64
2022/09/12 00:04:04;;;;;;;3.03;2.72;;;10.50;99.90;;;;;;4987507;28;20070;-65
2022/09/12 00:06:33;;;;;;;3.30;2.20;;;10.50;99.90;;;;;;4985442;28;20171;-63
2022/09/12 00:09:06;;;;;;;4.70;3.00;;;10.40;99.90;;;;;;4989601;28;20038;-63
2022/09/12 00:11:38;;;;;;;3.45;2.85;;;10.40;99.90;;;;;;4992322;28;20133;-63
2022/09/12 00:14:08;;;;;;;3.97;2.72;;;10.40;99.90;;;;;;4987958;28;20053;-70
2022/09/12 00:16:36;;;;;;;4.03;3.10;;;10.30;99.90;;;;;;4992546;28;20129;-63
2022/09/12 00:19:04;;;;;;;6.32;2.58;;;10.30;99.90;;;;;;4992871;28;21271;-63
2022/09/12 00:21:35;;;;;;;2.70;2.50;;;10.20;99.90;;;;;;4995859;28;20046;-65
2022/09/12 00:24:02;;;;;;;5.50;2.60;;;10.10;99.90;;;;;;5000000;28;20048;-65
2022/09/12 00:26:29;;;;;;;5.28;2.63;;;10.10;99.90;;;;;;5002405;28;20056;-65
2022/09/12 00:28:56;;;;;;;7.75;3.47;;;10.10;99.90;;;;;;4991680;28;20070;-66
2022/09/12 00:31:25;;;;;;;3.33;2.70;;;10.00;99.90;;;;;;4973783;28;20409;-63
2022/09/12 00:33:55;;;;;;;4.70;3.42;;;9.90;99.90;;;;;;4966029;28;20085;-65
2022/09/12 00:36:23;;;;;;;;;;;9.90;99.90;;;;;;4967476;28;20051;-65
2022/09/12 00:38:50;;;;;;;4.38;2.42;;;9.90;99.90;;;;;;4979142;28;19928;-63
2022/09/12 00:41:24;;;;;;;3.53;3.03;;;9.90;99.90;;;;;;4970124;28;20042;-64
2022/09/12 00:43:58;;;;;;;4.00;3.08;;;9.80;99.90;;;;;;4969659;28;20049;-67
2022/09/12 00:46:32;;;;;;;3.28;2.60;;;9.80;99.90;;;;;;4967543;28;20042;-64
2022/09/12 00:49:30;;;;;;;3.00;2.80;;;9.80;99.90;;;;;;4969636;28;20821;-64
2022/09/12 00:52:07;;;;;;;3.95;2.95;;;9.80;99.90;;;;;;4974478;28;20042;-66
2022/09/12 00:54:41;;;;;;;2.95;2.65;;;9.70;99.90;;;;;;4972498;28;20038;-66
2022/09/12 00:57:10;;;;;;;6.57;3.58;;;9.70;99.90;;;;;;4976569;28;20065;-66
2022/09/12 00:59:42;;;;;;;2.50;2.30;;;9.60;99.90;;;;;;4963686;28;20039;-66
2022/09/12 01:02:10;;;;;;;3.85;3.17;;;9.60;99.90;;;;;;4967823;28;20043;-63
2022/09/12 01:04:39;;;;;;;3.90;3.03;;;9.50;99.90;;;;;;4966323;28;20150;-64
2022/09/12 01:07:07;;;;;;;4.72;2.88;;;9.50;99.90;;;;;;4966196;28;20039;-64
2022/09/12 01:09:35;;;;;;;3.10;2.80;;;9.50;99.90;;;;;;4965793;28;20116;-68
2022/09/12 01:12:03;;;;;;;3.63;2.40;;;9.40;99.90;;;;;;4966786;28;20043;-64
2022/09/12 01:14:31;;;;;;;5.60;2.33;;;9.50;99.90;;;;;;4969615;28;20061;-64
2022/09/12 01:16:58;;;;;;;7.72;2.75;;;9.40;99.90;;;;;;4978522;28;20509;-65
2022/09/12 01:19:56;;;;;;;6.28;3.55;;;9.40;99.90;;;;;;4974099;28;20072;-63
2022/09/12 01:22:59;;;;;;;4.80;2.35;;;9.50;99.90;;;;;;4974191;28;20050;-68
2022/09/12 01:25:56;;;;;;;6.57;5.85;;;9.50;99.90;;;;;;4973572;28;20051;-66
2022/09/12 01:28:32;;;;;;;5.13;3.10;;;9.50;99.90;;;;;;4974585;28;20068;-65
2022/09/12 01:31:10;;;;;;;5.25;2.85;;;9.50;99.90;;;;;;4991425;28;20045;-63
2022/09/12 01:33:43;;;;;;;4.32;2.83;;;9.70;99.90;;;;;;4991693;28;20045;-64
2022/09/12 01:36:38;;;;;;;4.63;3.42;;;9.90;99.90;;;;;;4997703;28;20042;-63
2022/09/12 01:39:28;;;;;;;6.95;3.85;;;10.00;99.90;;;;;;4994129;28;20048;-64
2022/09/12 01:42:14;;;;;;;;;;;10.10;99.90;;;;;;4987366;28;20061;-64
2022/09/12 01:44:56;;;;;;;8.07;4.00;;;10.20;99.90;;;;;;4991705;28;19934;-63
2022/09/12 01:47:32;;;;;;;3.35;3.05;;;10.30;99.90;;;;;;4985551;28;20046;-64
2022/09/12 01:50:06;;;;;;;6.13;3.08;;;10.30;99.90;;;;;;4995193;28;20042;-63
2022/09/12 01:52:53;;;;;;;4.82;2.88;;;10.30;99.90;;;;;;4988066;28;20070;-65
2022/09/12 01:55:26;;;;;;;4.47;3.20;;;10.30;99.90;;;;;;4985934;28;20053;-63
2022/09/12 01:58:06;;;;;;;4.95;2.67;;;10.40;99.90;;;;;;4990835;28;20042;-67
2022/09/12 02:00:41;;;;;;;5.57;2.55;;;10.40;99.90;;;;;;4993235;28;20046;-63
2022/09/12 02:03:13;;;;;;;3.10;2.90;;;10.40;99.90;;;;;;4995811;28;20157;-63
2022/09/12 02:05:48;;;;;;;3.45;2.75;;;10.40;99.90;;;;;;4992682;28;20038;-63
2022/09/12 02:08:21;;;;;;;5.43;2.70;;;10.40;99.90;;;;;;4989011;28;20052;-66
2022/09/12 02:11:06;;;;;;;2.72;2.50;;;10.40;99.90;;;;;;4987433;28;20058;-67
2022/09/12 02:13:42;;;;;;;5.30;2.70;;;10.40;99.90;;;;;;4987877;28;20042;-64
2022/09/12 02:16:21;;;;;;;2.67;2.35;;;10.40;99.90;;;;;;4992004;28;20132;-64
2022/09/12 02:19:05;;;;;;;3.30;2.83;;;10.40;99.90;;;;;;4997896;28;20042;-63
2022/09/12 02:21:35;;;;;;;3.85;2.45;;;10.40;99.90;;;;;;4986457;28;20042;-65
2022/09/12 02:24:06;;;;;;;5.63;3.00;;;10.40;99.90;;;;;;4992184;28;20380;-65
2022/09/12 02:26:37;;;;;;;3.08;2.67;;;10.40;99.90;;;;;;4997636;28;20403;-68
2022/09/12 02:29:04;;;;;;;2.67;2.47;;;10.40;99.90;;;;;;4992571;28;20052;-64
2022/09/12 02:31:34;;;;;;;4.25;2.08;;;10.40;99.90;;;;;;4988749;28;20049;-63
2022/09/12 02:34:29;;;;;;;2.67;2.47;;;10.40;99.90;;;;;;4993260;28;20161;-64
2022/09/12 02:37:02;;;;;;;4.22;3.55;;;10.30;99.90;;;;;;4991298;28;20129;-66
2022/09/12 02:39:29;;;;;;;5.43;2.50;;;10.30;99.90;;;;;;4991054;28;20142;-64
2022/09/12 02:41:59;;;;;;;3.00;2.08;;;10.20;99.90;;;;;;4988099;28;20052;-68
2022/09/12 02:44:28;;;;;;;3.42;2.00;;;10.20;99.90;;;;;;4987683;28;20050;-68
2022/09/12 02:47:07;;;;;;;3.80;3.50;;;10.20;99.90;;;;;;4988114;28;20465;-65
2022/09/12 02:49:34;;;;;;;3.00;2.63;;;10.10;99.90;;;;;;4987488;28;20046;-63
2022/09/12 02:52:01;;;;;;;3.47;2.63;;;10.00;99.90;;;;;;4989764;28;20486;-63
2022/09/12 02:54:29;;;;;;;3.67;2.40;;;10.00;99.90;;;;;;4988475;28;20061;-64
2022/09/12 02:56:56;;;;;;;4.15;2.15;;;10.00;99.90;;;;;;4986251;28;20034;-68
2022/09/12 02:59:24;;;;;;;2.45;2.22;;;9.90;99.90;;;;;;4994461;28;20380;-64
2022/09/12 03:02:16;;;;;;;3.60;2.53;;;9.80;99.90;;;;;;4990648;28;20034;-64
2022/09/12 03:05:20;;;;;;;5.15;2.60;;;9.80;99.90;;;;;;4995355;28;20538;-65
2022/09/12 03:08:07;;;;;;;5.18;3.05;;;9.80;99.90;;;;;;4988727;28;20053;-65
2022/09/12 03:10:49;;;;;;;7.70;2.45;;;9.80;99.90;;;;;;4995463;28;20577;-65
2022/09/12 03:13:29;;;;;;;3.40;2.95;;;9.80;99.90;;;;;;4989414;28;20376;-65
2022/09/12 03:15:59;;;;;;;3.45;2.70;;;9.70;99.90;;;;;;4990614;28;20133;-66
2022/09/12 03:18:26;;;;;;;4.75;2.45;;;9.70;99.90;;;;;;4989622;28;20338;-66
2022/09/12 03:21:09;;;;;;;2.75;2.55;;;9.70;99.90;;;;;;4989728;28;20065;-63
2022/09/12 03:23:51;;;;;;;2.92;2.47;;;9.60;99.90;;;;;;4986974;28;20044;-64
2022/09/12 03:26:29;;;;;;;3.33;3.00;;;9.60;99.90;;;;;;4992572;28;20112;-65
2022/09/12 03:28:58;;;;;;;4.57;2.70;;;9.60;99.90;;;;;;4992977;28;20054;-67
2022/09/12 03:31:24;;;;;;;2.92;2.72;;;9.70;99.90;;;;;;4995138;28;20377;-64
2022/09/12 03:33:51;;;;;;;3.58;2.80;;;9.70;99.90;;;;;;4990336;28;20133;-65
2022/09/12 03:36:25;;;;;;;4.10;2.88;;;9.70;99.90;;;;;;4995712;28;20141;-65
2022/09/12 03:38:52;;;;;;;6.05;3.10;;;9.60;99.90;;;;;;4996884;28;20065;-72
2022/09/12 03:41:19;;;;;;;4.35;2.50;;;9.60;99.90;;;;;;4998355;28;20049;-65
2022/09/12 03:43:46;;;;;;;3.45;2.50;;;9.70;99.90;;;;;;4990745;28;20038;-65
2022/09/12 03:46:13;;;;;;;2.65;2.40;;;9.60;99.90;;;;;;4992186;28;20152;-66
2022/09/12 03:48:40;;;;;;;6.25;2.70;;;9.60;99.90;;;;;;4986882;28;20038;-63
2022/09/12 03:51:09;;;;;;;3.70;2.20;;;9.60;99.90;;;;;;4993054;28;20052;-64
2022/09/12 03:53:36;;;;;;;4.07;2.17;;;9.60;99.90;;;;;;4994927;28;20037;-63
2022/09/12 03:56:08;;;;;;;4.32;2.47;;;9.50;99.90;;;;;;4993847;28;20046;-65
2022/09/12 03:58:36;;;;;;;3.10;2.83;;;9.50;99.90;;;;;;4993763;28;20357;-63
2022/09/12 04:01:17;;;;;;;1.90;1.70;;;9.50;99.90;;;;;;4991211;28;20110;-66
2022/09/12 04:03:46;;;;;;;2.40;2.05;;;9.40;99.90;;;;;;4991406;28;21005;-63
2022/09/12 04:06:15;;;;;;;2.55;2.13;;;9.40;99.90;;;;;;4992037;28;20046;-63
2022/09/12 04:08:43;;;;;;;4.73;2.63;;;9.40;99.90;;;;;;4990417;28;20125;-64
2022/09/12 04:11:13;;;;;;;3.97;2.17;;;9.30;99.90;;;;;;4995230;28;20041;-65
2022/09/12 04:13:42;;;;;;;3.22;2.97;;;9.30;99.90;;;;;;4986319;28;20098;-65
2022/09/12 04:16:09;;;;;;;3.20;2.85;;;9.30;99.90;;;;;;4990208;28;20129;-63
2022/09/12 04:18:36;;;;;;;3.70;2.95;;;9.40;99.90;;;;;;4990554;28;20046;-65
2022/09/12 04:21:09;;;;;;;4.38;3.58;;;9.40;99.90;;;;;;4990593;28;20049;-66
2022/09/12 04:23:36;;;;;;;4.45;2.60;;;9.50;99.90;;;;;;4987110;28;20537;-64
2022/09/12 04:26:07;;;;;;;3.10;2.67;;;9.50;99.90;;;;;;4991351;28;20042;-64
2022/09/12 04:28:34;;;;;;;;;;;9.50;99.90;;;;;;4991680;28;20136;-65
2022/09/12 04:31:14;;;;;;;3.83;2.97;;;9.50;99.90;;;;;;4996739;28;19918;-63
2022/09/12 04:33:41;;;;;;;6.32;2.85;;;9.50;99.90;;;;;;4989472;28;20065;-69
2022/09/12 04:36:13;;;;;;;3.70;3.35;;;9.50;99.90;;;;;;4992542;28;20054;-65
2022/09/12 04:38:40;;;;;;;3.20;2.92;;;9.40;99.90;;;;;;4987689;28;20104;-65
2022/09/12 04:41:34;;;;;;;3.78;3.08;;;9.50;99.90;;;;;;4990533;28;20609;-68
2022/09/12 04:44:05;;;;;;;7.90;3.35;;;9.50;99.90;;;;;;4972524;28;20088;-63
2022/09/12 04:46:35;;;;;;;6.05;3.88;;;9.50;99.90;;;;;;4989510;28;20050;-64
2022/09/12 04:49:03;;;;;;;;;;;9.50;99.90;;;;;;4992794;28;20105;-67
2022/09/12 04:51:34;;;;;;;4.25;3.60;;;9.60;99.90;;;;;;4988619;28;19922;-64
2022/09/12 04:54:12;;;;;;;11.98;3.88;;;9.60;99.90;;;;;;4994017;28;20648;-63
2022/09/12 04:56:41;;;;;;;4.93;3.65;;;9.60;99.90;;;;;;4992749;28;20161;-67
2022/09/12 04:59:09;;;;;;;9.18;4.05;;;9.60;99.90;;;;;;4993329;28;20243;-63
2022/09/12 05:01:36;;;;;;;7.15;3.83;;;9.60;99.90;;;;;;4993121;28;20135;-65
2022/09/12 05:04:03;;;;;;;5.50;3.40;;;9.50;99.90;;;;;;4996799;28;20049;-64
2022/09/12 05:06:33;;;;;;;6.30;4.78;;;9.60;99.90;;;;;;4992921;28;20050;-64
2022/09/12 05:09:02;;;;;;;4.22;3.53;;;9.60;99.90;;;;;;4997327;28;20038;-63
2022/09/12 05:11:35;;;;;;;7.43;5.53;;;9.60;99.90;;;;;;4993414;28;20060;-67
2022/09/12 05:14:22;;;;;;;5.22;3.85;;;9.60;99.90;;;;;;4995751;28;20113;-65
2022/09/12 05:16:49;;;;;;;6.20;4.00;;;9.60;99.90;;;;;;4996573;28;20080;-67
2022/09/12 05:19:16;;;;;;;3.70;3.40;;;9.60;99.90;;;;;;4995155;28;20038;-69
2022/09/12 05:21:43;;;;;;;5.03;4.28;;;9.70;99.90;;;;;;4998455;28;20046;-64
2022/09/12 05:24:10;;;;;;;4.30;3.70;;;9.60;99.90;;;;;;4991323;28;20050;-67
2022/09/12 05:26:38;;;;;;;4.93;4.50;;;9.60;99.90;;;;;;4995420;28;20954;-67
2022/09/12 05:29:05;;;;;;;4.97;3.53;;;9.60;99.90;;;;;;4996821;28;20050;-63
2022/09/12 05:31:33;;;;;;;14.48;5.57;;;9.70;99.90;;;;;;4993716;28;20046;-67
2022/09/12 05:34:04;;;;;;;4.05;3.35;;;9.70;99.90;;;;;;4995871;28;20133;-64
2022/09/12 05:36:31;;;;;;;3.85;3.50;;;9.80;99.90;;;;;;4994399;28;20058;-65
2022/09/12 05:38:59;;;;;;;4.88;3.30;;;9.80;99.90;;;;;;4995152;28;20065;-65
2022/09/12 05:41:29;;;;;;;4.00;3.35;;;9.90;99.90;;;;;;4992436;28;20064;-66
2022/09/12 05:43:58;;;;;;;5.53;3.63;;;10.00;99.90;;;;;;4993363;28;20587;-64
2022/09/12 05:46:27;;;;;;;7.00;3.63;;;10.10;99.90;;;;;;4993802;28;20052;-65
2022/09/12 05:48:55;;;;;;;4.07;3.13;;;10.20;99.90;;;;;;4998404;28;20043;-64
2022/09/12 05:51:25;;;;;;;6.70;3.67;;;10.30;99.90;;;;;;4994703;28;20056;-66
2022/09/12 05:53:55;;;;;;;5.85;3.45;;;10.30;99.90;;;;;;4995873;28;20396;-70
2022/09/12 05:56:25;;;;;;;3.78;3.30;;;10.40;99.90;;;;;;4993556;28;20038;-65
2022/09/12 05:58:55;;;;;;;3.53;2.67;;;10.50;99.90;;;;;;4990910;28;20128;-67
2022/09/12 06:01:22;;;;;;;5.30;2.90;;;10.60;99.90;;;;;;4993313;28;20049;-68
2022/09/12 06:03:52;;;;;;;5.53;4.32;;;10.70;99.90;;;;;;4994361;28;20132;-64
2022/09/12 06:06:21;;;;;;;7.03;3.17;;;10.80;99.90;;;;;;4989729;28;20391;-65
2022/09/12 06:08:50;;;;;;;7.28;3.20;;;10.90;99.90;;;;;;4995825;28;20085;-65
2022/09/12 06:11:24;;;;;;;6.50;3.28;;;11.00;99.90;;;;;;4994906;28;20050;-65
2022/09/12 06:13:51;;;;;;;4.68;3.08;;;11.10;99.90;;;;;;4999041;28;20040;-64
2022/09/12 06:16:21;;;;;;;4.43;2.85;;;11.10;99.90;;;;;;4999244;28;20325;-68
2022/09/12 06:18:53;;;;;;;4.28;2.75;;;11.20;99.90;;;;;;4996509;28;20203;-67
2022/09/12 06:21:21;;;;;;;5.88;3.47;;;11.30;99.90;;;;;;4989893;28;20683;-65
2022/09/12 06:23:48;;;;;;;4.13;3.05;;;11.30;99.90;;;;;;4993649;28;20042;-65
2022/09/12 06:26:20;;;;;;;4.20;2.42;;;11.40;99.90;;;;;;4990896;28;20050;-66
2022/09/12 06:28:47;;;;;;;2.20;2.00;;;11.50;99.90;;;;;;4992206;28;20054;-67
2022/09/12 06:31:19;;;;;;;2.63;1.77;;;11.60;99.90;;;;;;4994026;28;20512;-65
2022/09/12 06:33:49;;;;;;;3.63;2.15;;;11.70;99.90;;;;;;4993848;28;20045;-67
2022/09/12 06:36:22;;;;;;;6.15;2.50;;;11.80;99.90;;;;;;4995269;28;20058;-64
2022/09/12 06:38:56;;;;;;;5.03;2.63;;;11.90;99.90;;;;;;4994256;28;20042;-68
2022/09/12 06:41:24;;;;;;;4.20;2.08;;;12.00;99.90;;;;;;4984670;28;20596;-64
2022/09/12 06:43:52;;;;;;;2.60;2.00;;;12.00;99.90;;;;;;4990929;28;20484;-69
2022/09/12 06:46:20;;;;;;;2.33;2.13;;;12.10;99.90;;;;;;4989893;28;20058;-66
2022/09/12 06:48:47;;;;;;;2.63;1.92;;;12.20;99.90;;;;;;4993893;28;20636;-70
2022/09/12 06:51:16;;;;;;;2.08;1.88;;;12.40;99.90;;;;;;4992348;28;20053;-66
2022/09/12 06:53:45;;;;;;;2.17;2.00;;;12.50;99.90;;;;;;4998613;28;20495;-64
2022/09/12 06:56:17;;;;;;;1.98;1.85;;;12.50;99.90;;;;;;4991305;28;20829;-68
2022/09/12 06:58:45;;;;;;;2.92;2.47;;;12.60;99.90;;;;;;4991359;28;20079;-65
2022/09/12 07:01:14;;;;;;;2.05;1.77;;;12.70;99.90;;;;;;4988138;28;20228;-70
2022/09/12 07:03:43;;;;;;;2.15;1.90;;;12.80;99.90;;;;;;4988021;28;20232;-65
2022/09/12 07:06:12;;;;;;;1.90;1.75;;;12.90;99.90;;;;;;4991521;28;20125;-68
2022/09/12 07:08:39;;;;;;;5.22;1.58;;;13.00;99.90;;;;;;4996275;28;20054;-66
2022/09/12 07:11:11;;;;;;;1.05;0.95;;;13.20;99.90;;;;;;4996585;28;20121;-64
2022/09/12 07:13:39;;;;;;;1.83;1.58;;;13.30;99.90;;;;;;4989710;28;20046;-64
2022/09/12 07:16:07;;;;;;;4.97;1.77;;;13.50;99.90;;;;;;4991782;28;20045;-69
2022/09/12 07:18:34;;;;;;;2.42;2.22;;;13.70;99.90;;;;;;4992033;28;20651;-64
2022/09/12 07:21:02;;;;;;;3.05;1.65;;;13.80;99.90;;;;;;4995691;28;20063;-65
2022/09/12 07:23:29;;;;;;;2.22;2.03;;;13.90;99.90;;;;;;4993745;28;20512;-66
2022/09/12 07:25:58;;;;;;;3.22;1.98;;;14.00;99.90;;;;;;4994814;28;20044;-66
2022/09/12 07:28:30;;;;;;;2.47;1.60;;;13.90;99.90;;;;;;4990757;28;20046;-70
2022/09/12 07:31:03;;;;;;;3.25;2.25;;;13.80;99.90;;;;;;4997442;28;20046;-67
2022/09/12 07:33:31;;;;;;;1.92;1.48;;;13.80;99.90;;;;;;4990719;28;20054;-65
2022/09/12 07:36:03;;;;;;;7.80;1.75;;;13.80;99.90;;;;;;4996386;28;20395;-66
2022/09/12 07:38:30;;;;;;;2.35;1.55;;;13.80;99.90;;;;;;4991018;28;20065;-68
2022/09/12 07:40:57;;;;;;;1.80;1.23;;;13.80;99.90;;;;;;4993446;28;20081;-65
2022/09/12 07:43:24;;;;;;;2.33;1.60;;;13.80;99.90;;;;;;4992190;28;20137;-65
2022/09/12 07:45:57;;;;;;;2.28;1.50;;;13.90;99.90;;;;;;4991202;28;20050;-67
2022/09/12 07:48:24;;;;;;;3.67;1.98;;;13.90;99.90;;;;;;4991502;28;20084;-66
2022/09/12 07:51:01;;;;;;;2.33;2.13;;;13.90;99.90;;;;;;4991744;28;20415;-65
2022/09/12 07:53:36;;;;;;;1.75;1.65;;;13.90;99.90;;;;;;4989044;28;20050;-68
2022/09/12 07:56:05;;;;;;;3.80;1.60;;;14.00;99.90;;;;;;4986631;28;20038;-65
2022/09/12 07:58:35;;;;;;;2.08;1.73;;;14.10;99.90;;;;;;4991937;28;20318;-65
2022/09/12 08:01:26;;;;;;;1.83;1.63;;;14.20;99.90;;;;;;4991388;28;20055;-67
2022/09/12 08:03:56;;;;;;;2.90;1.83;;;14.40;99.90;;;;;;4985045;28;20050;-69
2022/09/12 08:06:24;;;;;;;2.05;1.08;;;14.50;99.90;;;;;;4996481;28;20712;-65
2022/09/12 08:08:53;;;;;;;1.48;1.38;;;14.50;99.90;;;;;;4996427;28;20048;-68
2022/09/12 08:11:21;;;;;;;1.90;1.70;;;14.60;99.90;;;;;;4987917;28;20152;-68
2022/09/12 08:13:50;;;;;;;1.77;1.55;;;14.70;99.90;;;;;;4989819;28;20383;-65
2022/09/12 08:16:23;;;;;;;2.78;1.52;;;14.80;99.90;;;;;;4993216;28;20042;-65
2022/09/12 08:18:50;;;;;;;4.68;1.70;;;14.80;99.90;;;;;;4990688;28;20060;-67
2022/09/12 08:21:22;;;;;;;3.58;2.50;;;14.80;99.90;;;;;;4990292;28;20062;-66
2022/09/12 08:24:02;;;;;;;1.70;1.60;;;14.90;99.90;;;;;;4988495;28;20129;-66
2022/09/12 08:26:31;;;;;;;2.20;1.65;;;14.90;99.90;;;;;;4992323;28;20479;-65
2022/09/12 08:28:58;;;;;;;2.97;1.73;;;15.00;99.90;;;;;;4991890;28;20048;-66
2022/09/12 08:31:26;;;;;;;2.72;2.45;;;15.10;99.90;;;;;;4991203;28;20049;-67
2022/09/12 08:33:57;;;;;;;2.08;1.33;;;15.20;99.90;;;;;;4989623;28;20157;-70
2022/09/12 08:36:28;;;;;;;1.38;1.27;;;15.30;99.90;;;;;;4992447;28;20049;-71
2022/09/12 08:38:58;;;;;;;2.78;1.50;;;15.20;99.90;;;;;;4984839;28;20069;-65
2022/09/12 08:41:33;;;;;;;;;;;15.30;99.90;;;;;;4987974;28;20034;-67
2022/09/12 08:44:07;;;;;;;3.90;1.98;;;15.30;99.90;;;;;;4986035;28;19937;-66
2022/09/12 08:46:37;;;;;;;1.85;1.63;;;15.40;99.90;;;;;;4989373;28;20077;-70
2022/09/12 08:49:09;;;;;;;3.65;1.65;;;15.40;99.90;;;;;;4992886;28;20045;-66
2022/09/12 08:51:37;;;;;;;1.42;1.00;;;15.50;99.90;;;;;;4986086;28;20038;-64
2022/09/12 08:54:11;;;;;;;2.85;1.58;;;15.50;99.90;;;;;;4987636;28;20042;-66
2022/09/12 08:56:38;;;;;;;2.17;1.63;;;15.50;99.90;;;;;;4993843;28;20445;-66
2022/09/12 08:59:07;;;;;;;1.13;1.02;;;15.50;99.90;;;;;;4993455;28;20180;-65
2022/09/12 09:01:42;;;;;;;2.35;1.27;;;15.50;99.90;;;;;;4991401;28;20493;-69
2022/09/12 09:04:42;;;;;;;4.75;2.20;;;15.60;99.90;;;;;;4999487;28;20042;-66
2022/09/12 09:07:32;;;;;;;;;;;15.60;99.90;;;;;;4994387;28;20090;-65
2022/09/12 09:10:18;;;;;;;5.47;1.30;;;15.60;99.90;;;;;;4987581;28;19924;-70
2022/09/12 09:14:46;;;;;;;1.65;1.55;;;15.70;99.90;;;;;;4993950;28;20133;-65
2022/09/12 09:16:15;;;;;;;1.92;1.48;;;15.80;99.90;;;;;;4982293;28;20038;-66
2022/09/12 09:18:45;;;;;;;1.48;1.20;;;15.80;99.90;;;;;;4991203;28;20039;-66
2022/09/12 09:21:25;;;;;;;1.42;1.33;;;15.80;99.90;;;;;;4989967;28;20049;-67
2022/09/12 09:23:56;;;;;;;;;;;15.90;99.90;;;;;;4988890;28;20093;-67
2022/09/12 09:26:40;;;;;;;4.13;1.88;;;15.90;99.90;;;;;;4992117;28;19928;-66
2022/09/12 09:29:19;;;;;;;2.47;1.20;;;15.90;99.90;;;;;;4989015;28;20500;-69
2022/09/12 09:31:51;;;;;;;1.67;1.35;;;15.90;99.90;;;;;;4987201;28;20089;-66
2022/09/12 09:34:20;;;;;;;1.98;1.25;;;16.00;99.90;;;;;;4988070;28;20428;-70
2022/09/12 09:37:08;;;;;;;1.67;1.20;;;16.00;99.90;;;;;;4995903;28;20080;-66
2022/09/12 09:39:38;;;;;;;1.33;1.23;;;16.00;99.90;;;;;;4992361;28;20054;-67
2022/09/12 09:42:16;;;;;;;2.20;1.40;;;16.00;99.90;;;;;;4994353;28;20053;-66
2022/09/12 09:44:47;;;;;;;3.22;1.58;;;16.10;99.90;;;;;;5005488;28;20073;-66
2022/09/12 09:47:14;;;;;;;1.35;1.25;;;16.10;99.90;;;;;;4992036;28;20140;-68
2022/09/12 09:49:41;;;;;;;3.30;1.00;;;16.10;99.90;;;;;;4990132;28;20061;-67
2022/09/12 09:52:13;;;;;;;1.75;1.65;;;16.20;99.90;;;;;;4996538;28;20725;-66
2022/09/12 09:54:48;;;;;;;1.15;1.05;;;16.20;99.90;;;;;;4994995;28;20050;-68
2022/09/12 09:57:33;;;;;;;3.83;1.77;;;16.20;99.90;;;;;;4992970;28;20119;-66
2022/09/12 10:00:24;;;;;;;2.42;1.02;;;16.30;99.90;;;;;;4993433;28;20034;-68
2022/09/12 10:02:57;;;;;;;1.85;1.48;;;16.30;99.90;;;;;;4995769;28;20089;-66
2022/09/12 10:05:24;;;;;;;2.85;1.27;;;16.40;99.90;;;;;;4999658;28;20056;-65
2022/09/12 10:07:51;;;;;;;2.83;1.20;;;16.40;99.90;;;;;;5030779;28;20041;-65
2022/09/12 10:10:21;;;;;;;4.78;2.05;;;16.40;99.90;;;;;;4988945;28;20148;-66
2022/09/12 10:12:49;;;;;;;1.60;1.23;;;16.50;99.90;;;;;;4997214;28;20099;-68
2022/09/12 10:15:19;;;;;;;2.85;1.42;;;16.60;99.90;;;;;;4988260;28;20373;-67
2022/09/12 10:17:48;;;;;;;3.08;1.40;;;16.60;99.90;;;;;;4989067;28;20042;-66
2022/09/12 10:20:38;;;;;;;1.77;1.23;;;16.60;99.90;;;;;;4991713;28;20050;-65
2022/09/12 10:23:29;;;;;;;1.40;1.00;;;16.70;99.90;;;;;;4994303;28;20080;-65
2022/09/12 10:26:00;;;;;;;2.17;1.25;;;16.70;99.90;;;;;;4992603;28;20133;-66
2022/09/12 10:28:32;;;;;;;;;;;16.70;99.90;;;;;;4997630;28;20207;-65
2022/09/12 10:31:01;;;;;;;1.55;1.42;;;16.60;99.90;;;;;;4995363;28;20260;-68
2022/09/12 10:33:29;;;;;;;1.83;1.73;;;16.60;99.90;;;;;;4996751;28;20500;-66
2022/09/12 10:36:02;;;;;;;1.30;1.20;;;16.60;99.90;;;;;;4997692;28;20046;-68
2022/09/12 10:38:33;;;;;;;3.10;1.50;;;16.60;99.90;;;;;;5000492;28;20050;-68
2022/09/12 10:41:04;;;;;;;1.50;1.40;;;16.60;99.90;;;;;;4993495;28;20172;-68
2022/09/12 10:43:36;;;;;;;2.28;1.40;;;16.70;99.90;;;;;;5000276;28;20050;-70
2022/09/12 10:46:15;;;;;;;2.45;2.25;;;16.60;99.90;;;;;;4988670;28;20046;-66
2022/09/12 10:48:44;;;;;;;2.03;1.83;;;16.70;99.90;;;;;;4989793;28;20140;-68
2022/09/12 10:51:29;;;;;;;2.58;1.40;;;16.80;99.90;;;;;;4996079;28;20066;-66
2022/09/12 10:54:02;;;;;;;1.77;1.13;;;16.80;99.90;;;;;;4991263;28;20039;-68
2022/09/12 10:56:38;;;;;;;2.17;1.92;;;16.80;99.90;;;;;;4989155;28;20183;-65
2022/09/12 10:59:31;;;;;;;3.47;1.73;;;16.80;99.90;;;;;;4991178;28;20050;-67
2022/09/12 11:02:08;;;;;;;1.33;1.23;;;16.80;99.90;;;;;;4988700;28;20050;-72
2022/09/12 11:04:47;;;;;;;5.75;1.50;;;16.90;99.90;;;;;;4992676;28;20508;-66
2022/09/12 11:07:39;;;;;;;1.77;1.67;;;17.00;99.90;;;;;;4993473;28;20695;-66
2022/09/12 11:10:35;;;;;;;3.78;1.92;;;17.00;99.90;;;;;;4996426;28;20085;-67
2022/09/12 11:13:23;;;;;;;4.00;1.17;;;17.00;99.90;;;;;;4991158;28;20054;-67
2022/09/12 11:16:06;;;;;;;1.70;1.40;;;17.10;99.90;;;;;;4986030;28;20717;-67
2022/09/12 11:19:02;;;;;;;1.95;1.58;;;17.10;99.90;;;;;;4988464;28;20056;-66
2022/09/12 11:21:55;;;;;;;1.77;1.42;;;17.10;99.90;;;;;;4985022;28;20038;-67
2022/09/12 11:25:06;;;;;;;1.50;1.40;;;17.10;99.90;;;;;;4988835;28;20084;-66
2022/09/12 11:27:51;;;;;;;3.70;1.67;;;17.10;99.90;;;;;;4982028;28;20057;-66
2022/09/12 11:30:18;;;;;;;3.20;1.40;;;17.10;99.90;;;;;;4988409;28;20081;-67
2022/09/12 11:33:04;;;;;;;1.70;1.52;;;17.10;99.90;;;;;;4993688;28;20054;-67
2022/09/12 11:35:34;;;;;;;2.55;1.30;;;17.10;99.90;;;;;;4983860;28;25568;-66
2022/09/12 11:38:28;;;;;;;3.87;1.40;;;17.20;99.90;;;;;;4994770;28;20048;-67
2022/09/12 11:41:02;;;;;;;1.33;1.20;;;17.10;99.90;;;;;;4986118;28;20292;-65
2022/09/12 11:43:51;;;;;;;3.10;1.55;;;17.20;99.90;;;;;;4989313;28;20056;-68
2022/09/12 11:46:35;;;;;;;1.45;1.17;;;17.30;99.90;;;;;;5003759;28;20129;-69
2022/09/12 11:49:08;;;;;;;1.40;1.30;;;17.40;99.90;;;;;;4993563;28;20495;-67
2022/09/12 11:51:49;;;;;;;3.58;1.60;;;17.40;99.90;;;;;;4987470;28;20660;-66
2022/09/12 11:54:41;;;;;;;4.47;1.75;;;17.50;99.90;;;;;;4998167;28;20227;-67
2022/09/12 11:57:44;;;;;;;1.98;1.35;;;17.40;99.90;;;;;;4986568;28;20132;-68
2022/09/12 12:00:19;;;;;;;1.55;1.42;;;17.30;99.90;;;;;;4984086;28;20085;-66
2022/09/12 12:03:05;;;;;;;1.85;1.45;;;17.10;99.90;;;;;;4990999;28;20073;-68
2022/09/12 12:05:39;;;;;;;2.85;1.45;;;17.10;99.90;;;;;;4989404;28;20050;-68
2022/09/12 12:08:08;;;;;;;1.40;1.30;;;17.30;99.90;;;;;;4993329;28;20133;-66
2022/09/12 12:10:38;;;;;;;2.45;1.60;;;17.40;99.90;;;;;;4997062;28;20037;-66
2022/09/12 12:13:16;;;;;;;2.80;1.55;;;17.40;99.90;;;;;;4988493;28;20236;-69
2022/09/12 12:15:49;;;;;;;1.40;1.30;;;17.40;99.90;;;;;;4986842;28;20062;-67
2022/09/12 12:18:21;;;;;;;1.60;1.35;;;17.40;99.90;;;;;;4987282;28;20106;-69
2022/09/12 12:20:49;;;;;;;4.43;1.40;;;17.40;99.90;;;;;;4987274;28;20883;-69
2022/09/12 12:23:28;;;;;;;2.33;1.92;;;17.40;99.90;;;;;;4987728;28;20041;-71
2022/09/12 12:26:03;;;;;;;2.25;1.55;;;17.10;99.90;;;;;;4987618;28;20058;-66
2022/09/12 12:28:43;;;;;;;1.65;1.55;;;17.20;99.90;;;;;;4989309;28;20576;-68
2022/09/12 12:31:10;;;;;;;2.13;1.95;;;17.20;99.90;;;;;;4992083;28;20141;-67
2022/09/12 12:33:37;;;;;;;3.85;1.35;;;17.30;99.90;;;;;;4988849;28;20046;-68
2022/09/12 12:36:37;;;;;;;4.65;1.73;;;17.20;99.90;;;;;;4997067;28;20044;-68
2022/09/12 12:39:23;;;;;;;;;;;17.30;99.90;;;;;;4999640;28;20141;-67
2022/09/12 12:41:49;;;;;;;1.20;1.10;;;17.40;99.90;;;;;;4993955;28;20034;-66
2022/09/12 12:44:44;;;;;;;3.10;1.50;;;17.40;99.90;;;;;;4991620;28;20050;-65
2022/09/12 12:47:24;;;;;;;2.58;1.52;;;17.40;99.90;;;;;;4986717;28;20046;-67
2022/09/12 12:50:18;;;;;;;3.17;1.55;;;17.50;99.90;;;;;;4989246;28;20046;-73
2022/09/12 12:52:48;;;;;;;1.77;1.45;;;17.30;99.90;;;;;;4990192;28;20137;-68
2022/09/12 12:55:22;;;;;;;6.10;1.90;;;17.40;99.90;;;;;;4989251;28;20149;-67
2022/09/12 12:57:51;;;;;;;2.50;1.92;;;17.30;99.90;;;;;;4988014;28;20040;-66
2022/09/12 13:00:24;;;;;;;1.90;1.50;;;17.30;99.90;;;;;;4989309;28;20042;-69
2022/09/12 13:03:20;;;;;;;1.17;1.08;;;17.20;99.90;;;;;;4988170;28;20745;-66
2022/09/12 13:05:51;;;;;;;3.65;1.60;;;17.30;99.90;;;;;;4981162;28;20633;-68
2022/09/12 13:08:18;;;;;;;1.77;1.42;;;17.40;99.90;;;;;;4990801;28;20042;-68
2022/09/12 13:10:50;;;;;;;1.65;1.50;;;17.50;99.90;;;;;;4988831;28;20422;-69
2022/09/12 13:13:47;;;;;;;3.22;1.95;;;17.50;99.90;;;;;;4997281;28;20409;-69
2022/09/12 13:16:34;;;;;;;1.60;1.30;;;17.40;99.90;;;;;;4985814;28;20077;-67
2022/09/12 13:19:10;;;;;;;2.42;1.65;;;17.50;99.90;;;;;;4993467;28;20499;-69
2022/09/12 13:22:00;;;;;;;1.40;1.30;;;17.60;99.90;;;;;;5000722;28;20061;-67
2022/09/12 13:24:27;;;;;;;2.33;1.80;;;17.60;99.90;;;;;;4996287;28;20487;-72
2022/09/12 13:26:56;;;;;;;1.50;1.40;;;17.60;99.90;;;;;;4991606;28;20050;-67
2022/09/12 13:29:25;;;;;;;2.05;1.33;;;17.60;99.90;;;;;;4998487;28;20084;-68